createdAt,value
2018-01-27T00:00:13.551Z,99894.66
2018-01-27T00:02:41.828Z,99894.26
2018-01-27T00:05:10.157Z,99898.39
2018-01-27T00:07:38.411Z,99893.61
2018-01-27T00:10:06.712Z,99903.41
2018-01-27T00:12:34.979Z,99908.58
2018-01-27T00:15:03.313Z,99909.09
2018-01-27T00:17:31.654Z,99907.86
2018-01-27T00:20:00.173Z,99913.80
2018-01-27T00:22:28.470Z,99917.14
2018-01-27T00:24:56.778Z,99910.83
2018-01-27T00:27:25.095Z,99893.42
2018-01-27T00:29:53.383Z,99904.37
2018-01-27T00:32:21.679Z,99903.45
2018-01-27T00:34:49.951Z,99894.91
2018-01-27T00:37:18.260Z,99905.38
2018-01-27T00:39:46.521Z,99910.11
2018-01-27T00:42:14.780Z,99913.40
2018-01-27T00:44:43.058Z,99914.56
2018-01-27T00:47:11.336Z,99913.27
2018-01-27T00:49:40.542Z,99908.08
2018-01-27T00:52:08.808Z,99919.81
2018-01-27T00:54:37.115Z,99925.63
2018-01-27T00:57:06.234Z,99923.06
2018-01-27T00:59:34.555Z,99909.50
2018-01-27T01:02:02.832Z,99919.36
2018-01-27T01:04:31.219Z,99925.37
2018-01-27T01:06:59.494Z,99930.58
2018-01-27T01:09:27.783Z,99937.03
2018-01-27T01:11:56.076Z,99932.74
2018-01-27T01:14:24.339Z,99922.75
2018-01-27T01:16:52.646Z,99935.70
2018-01-27T01:19:20.948Z,99941.58
2018-01-27T01:21:49.266Z,99945.02
2018-01-27T01:24:17.531Z,99947.41
2018-01-27T01:26:46.423Z,99958.17
2018-01-27T01:29:14.736Z,99962.52
2018-01-27T01:31:43.020Z,99962.11
2018-01-27T01:34:11.291Z,99959.12
2018-01-27T01:36:39.606Z,99964.32
2018-01-27T01:39:07.913Z,99970.44
2018-01-27T01:41:36.181Z,99976.14
2018-01-27T01:44:10.470Z,99979.37
2018-01-27T01:46:38.739Z,99984.84
2018-01-27T01:49:19.040Z,99973.66
2018-01-27T01:51:47.268Z,99981.62
2018-01-27T01:54:15.575Z,99980.07
2018-01-27T01:56:43.868Z,99984.15
2018-01-27T01:59:12.149Z,99994.04
2018-01-27T02:01:40.427Z,99996.48
2018-01-27T02:04:08.703Z,99995.75
2018-01-27T02:06:36.990Z,99997.53
2018-01-27T02:09:05.266Z,100006.48
2018-01-27T02:11:33.580Z,100017.78
2018-01-27T02:14:01.855Z,100017.25
2018-01-27T02:16:30.164Z,100012.27
2018-01-27T02:18:58.464Z,100010.87
2018-01-27T02:21:26.778Z,100009.09
2018-01-27T02:23:55.049Z,100017.21
2018-01-27T02:26:23.366Z,100015.68
2018-01-27T02:28:52.871Z,100009.52
2018-01-27T02:31:21.157Z,100012.97
2018-01-27T02:33:49.496Z,100017.13
2018-01-27T02:36:17.751Z,100020.09
2018-01-27T02:38:46.051Z,100026.38
2018-01-27T02:41:14.328Z,100023.97
2018-01-27T02:43:42.670Z,100015.38
2018-01-27T02:46:11.030Z,100024.78
2018-01-27T02:48:39.353Z,100022.80
2018-01-27T02:51:07.618Z,100027.78
2018-01-27T02:53:35.929Z,100026.92
2018-01-27T02:56:04.882Z,100038.47
2018-01-27T02:58:33.151Z,100035.22
2018-01-27T03:01:01.448Z,100034.85
2018-01-27T03:03:29.735Z,100037.39
2018-01-27T03:05:58.036Z,100046.94
2018-01-27T03:08:26.319Z,100050.74
2018-01-27T03:10:54.651Z,100052.89
2018-01-27T03:13:22.922Z,100041.97
2018-01-27T03:15:51.218Z,100043.72
2018-01-27T03:18:19.523Z,100059.36
2018-01-27T03:20:47.815Z,100072.11
2018-01-27T03:23:16.102Z,100057.51
2018-01-27T03:25:44.378Z,100064.09
2018-01-27T03:28:12.994Z,100066.38
2018-01-27T03:30:41.271Z,100065.34
2018-01-27T03:33:09.611Z,100056.60
2018-01-27T03:35:37.852Z,100048.22
2018-01-27T03:38:06.154Z,100050.25
2018-01-27T03:40:34.423Z,100058.78
2018-01-27T03:43:02.731Z,100048.25
2018-01-27T03:45:31.004Z,100052.84
2018-01-27T03:47:59.321Z,100049.84
2018-01-27T03:50:27.610Z,100049.47
2018-01-27T03:52:55.898Z,100068.45
2018-01-27T03:55:24.162Z,100072.33
2018-01-27T03:57:52.527Z,100079.42
2018-01-27T04:00:20.815Z,100068.53
2018-01-27T04:02:49.079Z,100088.36
2018-01-27T04:05:17.374Z,100098.52
2018-01-27T04:07:45.647Z,100091.59
2018-01-27T04:10:13.934Z,100102.26
2018-01-27T04:12:42.196Z,100103.70
2018-01-27T04:15:10.492Z,100105.50
2018-01-27T04:17:38.770Z,100103.59
2018-01-27T04:20:07.055Z,100111.26
2018-01-27T04:22:35.347Z,100107.63
2018-01-27T04:25:03.619Z,100113.36
2018-01-27T04:27:31.931Z,100119.45
2018-01-27T04:30:00.752Z,100123.78
2018-01-27T04:32:29.044Z,100119.75
2018-01-27T04:34:57.338Z,100129.83
2018-01-27T04:37:25.618Z,100129.39
2018-01-27T04:39:53.903Z,100130.62
2018-01-27T04:42:23.098Z,100136.13
2018-01-27T04:44:51.398Z,100132.13
2018-01-27T04:47:19.687Z,100138.85
2018-01-27T04:49:48.003Z,100142.03
2018-01-27T04:52:16.284Z,100143.13
2018-01-27T04:54:44.589Z,100143.62
2018-01-27T04:57:12.850Z,100144.53
2018-01-27T04:59:41.173Z,100147.71
2018-01-27T05:02:09.483Z,100145.86
2018-01-27T05:04:37.796Z,100155.94
2018-01-27T05:07:06.104Z,100146.58
2018-01-27T05:09:34.409Z,100151.60
2018-01-27T05:12:02.706Z,100159.77
2018-01-27T05:14:30.987Z,100155.25
2018-01-27T05:16:59.308Z,100153.52
2018-01-27T05:19:27.630Z,100155.23
2018-01-27T05:21:55.907Z,100158.77
2018-01-27T05:24:24.203Z,100144.97
2018-01-27T05:26:52.471Z,100161.80
2018-01-27T05:29:20.804Z,100163.02
2018-01-27T05:31:49.119Z,100164.00
2018-01-27T05:34:17.442Z,100165.82
2018-01-27T05:36:45.739Z,100174.59
2018-01-27T05:39:14.041Z,100176.42
2018-01-27T05:41:42.350Z,100179.05
2018-01-27T05:44:10.622Z,100177.95
2018-01-27T05:46:38.947Z,100177.05
2018-01-27T05:49:08.144Z,100179.64
2018-01-27T05:51:36.450Z,100176.93
2018-01-27T05:54:04.733Z,100185.70
2018-01-27T05:56:33.039Z,100181.27
2018-01-27T05:59:01.320Z,100172.80
2018-01-27T06:01:29.624Z,100190.34
2018-01-27T06:03:57.911Z,100201.24
2018-01-27T06:06:26.223Z,100206.60
2018-01-27T06:08:54.508Z,100206.08
2018-01-27T06:11:22.801Z,100214.78
2018-01-27T06:13:51.095Z,100216.56
2018-01-27T06:16:19.425Z,100219.41
2018-01-27T06:18:47.695Z,100223.24
2018-01-27T06:21:16.011Z,100223.13
2018-01-27T06:23:44.283Z,100240.38
2018-01-27T06:26:12.554Z,100243.59
2018-01-27T06:28:40.839Z,100254.61
2018-01-27T06:31:09.110Z,100261.05
2018-01-27T06:33:37.461Z,100260.77
2018-01-27T06:36:05.761Z,100272.83
2018-01-27T06:38:34.126Z,100274.73
2018-01-27T06:41:02.395Z,100294.37
2018-01-27T06:43:30.727Z,100283.00
2018-01-27T06:45:59.059Z,100286.95
2018-01-27T06:48:27.343Z,100287.56
2018-01-27T06:50:56.208Z,100291.55
2018-01-27T06:53:24.497Z,100283.55
2018-01-27T06:55:52.840Z,100289.92
2018-01-27T06:58:21.054Z,100289.81
2018-01-27T07:00:49.403Z,100296.57
2018-01-27T07:03:17.694Z,100300.09
2018-01-27T07:05:46.004Z,100300.42
2018-01-27T07:08:14.273Z,100298.23
2018-01-27T07:10:42.582Z,100330.22
2018-01-27T07:13:10.875Z,100312.48
2018-01-27T07:15:39.172Z,100332.34
2018-01-27T07:18:07.505Z,100334.76
2018-01-27T07:20:35.775Z,100334.76
2018-01-27T07:23:05.118Z,100331.94
2018-01-27T07:25:33.368Z,100337.36
2018-01-27T07:28:01.684Z,100334.56
2018-01-27T07:30:29.962Z,100347.17
2018-01-27T07:32:58.291Z,100350.67
2018-01-27T07:35:26.618Z,100355.23
2018-01-27T07:37:54.905Z,100353.47
2018-01-27T07:40:23.211Z,100349.63
2018-01-27T07:42:51.561Z,100365.47
2018-01-27T07:45:19.835Z,100366.34
2018-01-27T07:47:48.136Z,100350.77
2018-01-27T07:50:16.438Z,100364.07
2018-01-27T07:52:44.767Z,100365.36
2018-01-27T07:55:13.091Z,100371.16
2018-01-27T07:57:41.422Z,100377.53
2018-01-27T08:00:09.725Z,100383.67
2018-01-27T08:02:38.017Z,100378.90
2018-01-27T08:05:06.284Z,100383.45
2018-01-27T08:07:34.608Z,100384.81
2018-01-27T08:10:02.884Z,100380.27
2018-01-27T08:12:31.193Z,100379.28
2018-01-27T08:14:59.522Z,100391.09
2018-01-27T08:17:27.770Z,100374.75
2018-01-27T08:19:56.144Z,100398.19
2018-01-27T08:22:24.380Z,100395.73
2018-01-27T08:24:52.676Z,100388.80
2018-01-27T08:27:21.178Z,100394.20
2018-01-27T08:29:49.919Z,100395.64
2018-01-27T08:32:18.267Z,100388.64
2018-01-27T08:34:46.618Z,100391.83
2018-01-27T08:37:15.859Z,100397.08
2018-01-27T08:39:44.135Z,100390.78
2018-01-27T08:42:12.471Z,100391.45
2018-01-27T08:44:40.703Z,100399.84
2018-01-27T08:47:09.018Z,100408.62
2018-01-27T08:49:37.290Z,100412.34
2018-01-27T08:52:05.628Z,100423.74
2018-01-27T08:54:33.913Z,100431.52
2018-01-27T08:57:02.222Z,100435.52
2018-01-27T08:59:30.530Z,100432.58
2018-01-27T09:01:58.861Z,100430.15
2018-01-27T09:04:27.155Z,100439.18
2018-01-27T09:06:55.430Z,100430.11
2018-01-27T09:09:24.290Z,100447.66
2018-01-27T09:11:52.692Z,100442.15
2018-01-27T09:14:21.012Z,100439.25
2018-01-27T09:16:49.476Z,100436.66
2018-01-27T09:19:17.679Z,100434.16
2018-01-27T09:21:45.987Z,100440.23
2018-01-27T09:24:14.255Z,100447.23
2018-01-27T09:26:42.556Z,100452.20
2018-01-27T09:29:10.872Z,100459.97
2018-01-27T09:31:39.163Z,100456.83
2018-01-27T09:34:07.584Z,100453.56
2018-01-27T09:36:35.913Z,100457.80
2018-01-27T09:39:04.210Z,100465.87
2018-01-27T09:41:33.458Z,100470.16
2018-01-27T09:44:01.771Z,100457.05
2018-01-27T09:46:30.081Z,100475.42
2018-01-27T09:48:59.393Z,100481.77
2018-01-27T09:51:27.712Z,100478.70
2018-01-27T09:53:56.005Z,100490.33
2018-01-27T09:56:24.270Z,100504.92
2018-01-27T09:58:52.559Z,100517.36
2018-01-27T10:01:20.871Z,100500.39
2018-01-27T10:03:49.146Z,100522.34
2018-01-27T10:06:17.497Z,100519.95
2018-01-27T10:08:45.763Z,100531.29
2018-01-27T10:11:14.061Z,100511.00
2018-01-27T10:13:42.378Z,100522.09
2018-01-27T10:16:10.666Z,100529.53
2018-01-27T10:18:38.975Z,100524.50
2018-01-27T10:21:07.318Z,100517.86
2018-01-27T10:23:35.619Z,100535.83
2018-01-27T10:26:03.902Z,100537.00
2018-01-27T10:28:32.161Z,100537.44
2018-01-27T10:31:00.648Z,100539.33
2018-01-27T10:33:28.908Z,100537.41
2018-01-27T10:35:57.205Z,100535.34
2018-01-27T10:38:25.487Z,100528.28
2018-01-27T10:40:53.823Z,100521.66
2018-01-27T10:43:22.125Z,100511.56
2018-01-27T10:45:50.407Z,100512.67
2018-01-27T10:48:18.744Z,100476.28
2018-01-27T10:50:47.103Z,100511.59
2018-01-27T10:53:16.032Z,100494.45
2018-01-27T10:55:44.346Z,100497.63
2018-01-27T10:58:13.192Z,100496.33
2018-01-27T11:00:41.518Z,100461.95
2018-01-27T11:03:09.865Z,100460.44
2018-01-27T11:05:38.141Z,100467.75
2018-01-27T11:08:06.506Z,100475.00
2018-01-27T11:10:34.786Z,100469.55
2018-01-27T11:13:03.111Z,100465.73
2018-01-27T11:15:31.383Z,100461.50
2018-01-27T11:17:59.695Z,100455.41
2018-01-27T11:20:28.019Z,100448.85
2018-01-27T11:22:56.344Z,100446.34
2018-01-27T11:25:24.618Z,100444.72
2018-01-27T11:27:52.922Z,100441.77
2018-01-27T11:30:21.224Z,100442.38
2018-01-27T11:32:49.507Z,100441.38
2018-01-27T11:35:17.823Z,100439.35
2018-01-27T11:37:46.952Z,100441.28
2018-01-27T11:40:15.475Z,100445.83
2018-01-27T11:42:43.781Z,100443.92
2018-01-27T11:45:12.135Z,100449.56
2018-01-27T11:47:40.407Z,100449.38
2018-01-27T11:50:08.853Z,100444.71
2018-01-27T11:52:37.100Z,100444.99
2018-01-27T11:55:06.494Z,100441.67
2018-01-27T11:57:36.478Z,100442.78
2018-01-27T12:00:04.919Z,100444.01
2018-01-27T12:02:33.247Z,100432.75
2018-01-27T12:05:01.650Z,100437.73
2018-01-27T12:07:29.938Z,100437.94
2018-01-27T12:10:00.152Z,100436.00
2018-01-27T12:12:30.775Z,100358.13
2018-01-27T12:14:59.062Z,100446.73
2018-01-27T12:17:27.415Z,100446.42
2018-01-27T12:19:55.729Z,100446.34
2018-01-27T12:22:24.806Z,100448.88
2018-01-27T12:24:53.175Z,100459.38
2018-01-27T12:27:21.452Z,100469.89
2018-01-27T12:29:49.796Z,100469.27
2018-01-27T12:32:19.065Z,100469.19
2018-01-27T12:34:47.330Z,100474.26
2018-01-27T12:37:15.676Z,100471.91
2018-01-27T12:39:43.938Z,100476.75
2018-01-27T12:42:13.540Z,100474.45
2018-01-27T12:44:41.816Z,100474.47
2018-01-27T12:47:10.327Z,100474.02
2018-01-27T12:49:38.719Z,100477.86
2018-01-27T12:52:07.062Z,100472.28
2018-01-27T12:54:35.360Z,100471.80
2018-01-27T12:57:04.296Z,100479.80
2018-01-27T12:59:32.593Z,100481.33
2018-01-27T13:02:00.872Z,100488.58
2018-01-27T13:04:29.192Z,100480.03
2018-01-27T13:06:57.512Z,100493.64
2018-01-27T13:09:25.830Z,100486.55
2018-01-27T13:11:55.200Z,100495.86
2018-01-27T13:14:23.495Z,100483.05
2018-01-27T13:16:51.787Z,100480.41
2018-01-27T13:19:20.074Z,100475.55
2018-01-27T13:21:48.371Z,100475.66
2018-01-27T13:24:16.709Z,100464.97
2018-01-27T13:26:44.976Z,100479.11
2018-01-27T13:29:13.361Z,100480.12
2018-01-27T13:31:41.639Z,100466.98
2018-01-27T13:34:09.979Z,100462.09
2018-01-27T13:36:38.390Z,100461.05
2018-01-27T13:39:06.795Z,100455.88
2018-01-27T13:41:35.120Z,100464.06
2018-01-27T13:44:03.394Z,100461.32
2018-01-27T13:46:31.709Z,100458.98
2018-01-27T13:48:59.976Z,100460.00
2018-01-27T13:51:28.291Z,100442.28
2018-01-27T13:53:56.582Z,100455.31
2018-01-27T13:56:24.894Z,100458.16
2018-01-27T13:58:53.219Z,100447.25
2018-01-27T14:01:22.095Z,100444.11
2018-01-27T14:03:52.983Z,100440.05
2018-01-27T14:06:21.386Z,100440.84
2018-01-27T14:08:49.816Z,100443.91
2018-01-27T14:11:18.115Z,100439.81
2018-01-27T14:13:46.455Z,100440.13
2018-01-27T14:16:14.779Z,100435.07
2018-01-27T14:18:43.059Z,100456.75
2018-01-27T14:21:11.375Z,100450.25
2018-01-27T14:23:39.649Z,100464.95
2018-01-27T14:26:08.029Z,100466.23
2018-01-27T14:28:36.400Z,100467.46
2018-01-27T14:31:04.699Z,100462.81
2018-01-27T14:33:32.985Z,100467.98
2018-01-27T14:36:01.280Z,100467.05
2018-01-27T14:38:29.663Z,100463.72
2018-01-27T14:40:58.863Z,100462.09
2018-01-27T14:43:27.161Z,100454.21
2018-01-27T14:45:55.470Z,100448.05
2018-01-27T14:48:23.759Z,100453.22
2018-01-27T14:50:52.460Z,100451.28
2018-01-27T14:53:20.825Z,100449.37
2018-01-27T14:55:49.071Z,100451.51
2018-01-27T14:58:17.395Z,100455.74
2018-01-27T15:00:45.712Z,100455.02
2018-01-27T15:03:14.059Z,100456.52
2018-01-27T15:05:42.397Z,100463.61
2018-01-27T15:08:10.798Z,100468.66
2018-01-27T15:10:39.271Z,100484.13
2018-01-27T15:13:08.364Z,100482.94
2018-01-27T15:15:36.680Z,100462.02
2018-01-27T15:18:04.995Z,100492.96
2018-01-27T15:20:33.323Z,100481.51
2018-01-27T15:23:01.881Z,100479.42
2018-01-27T15:25:30.180Z,100484.98
2018-01-27T15:27:58.534Z,100489.23
2018-01-27T15:30:26.868Z,100490.22
2018-01-27T15:32:55.132Z,100495.45
2018-01-27T15:35:23.428Z,100495.27
2018-01-27T15:37:51.706Z,100498.20
2018-01-27T15:40:20.135Z,100509.55
2018-01-27T15:42:48.454Z,100521.95
2018-01-27T15:45:16.741Z,100505.76
2018-01-27T15:47:45.094Z,100538.11
2018-01-27T15:50:20.452Z,100544.26
2018-01-27T15:52:48.726Z,100566.39
2018-01-27T15:55:17.054Z,100553.06
2018-01-27T15:57:45.366Z,100561.98
2018-01-27T16:00:13.643Z,100561.37
2018-01-27T16:02:41.943Z,100562.02
2018-01-27T16:05:11.100Z,100569.51
2018-01-27T16:07:39.444Z,100577.91
2018-01-27T16:10:07.763Z,100575.34
2018-01-27T16:12:36.062Z,100580.58
2018-01-27T16:15:04.322Z,100579.42
2018-01-27T16:17:32.628Z,100571.94
2018-01-27T16:20:00.926Z,100561.16
2018-01-27T16:22:29.289Z,100571.02
2018-01-27T16:24:58.230Z,100572.84
2018-01-27T16:27:26.490Z,100556.16
2018-01-27T16:29:54.810Z,100568.00
2018-01-27T16:32:23.109Z,100565.22
2018-01-27T16:34:51.391Z,100557.06
2018-01-27T16:37:19.668Z,100554.36
2018-01-27T16:39:47.950Z,100549.19
2018-01-27T16:42:16.207Z,100548.39
2018-01-27T16:44:44.503Z,100542.60
2018-01-27T16:47:12.787Z,100533.09
2018-01-27T16:49:41.982Z,100545.05
2018-01-27T16:52:10.255Z,100554.66
2018-01-27T16:54:38.569Z,100569.41
2018-01-27T16:57:06.848Z,100566.88
2018-01-27T16:59:35.145Z,100558.59
2018-01-27T17:02:03.429Z,100574.48
2018-01-27T17:04:31.696Z,100565.55
2018-01-27T17:07:00.085Z,100567.91
2018-01-27T17:09:28.328Z,100571.83
2018-01-27T17:11:56.639Z,100560.71
2018-01-27T17:14:24.945Z,100555.45
2018-01-27T17:16:53.246Z,100573.86
2018-01-27T17:19:21.535Z,100562.75
2018-01-27T17:21:49.811Z,100580.66
2018-01-27T17:24:18.126Z,100579.63
2018-01-27T17:26:46.410Z,100575.67
2018-01-27T17:29:14.723Z,100582.68
2018-01-27T17:31:42.963Z,100591.62
2018-01-27T17:34:11.271Z,100596.05
2018-01-27T17:36:39.570Z,100609.12
2018-01-27T17:39:07.876Z,100610.17
2018-01-27T17:41:36.178Z,100597.31
2018-01-27T17:44:04.457Z,100615.83
2018-01-27T17:46:32.759Z,100622.45
2018-01-27T17:49:01.027Z,100616.36
2018-01-27T17:51:29.453Z,100611.27
2018-01-27T17:53:57.736Z,100618.59
2018-01-27T17:56:26.022Z,100616.09
2018-01-27T17:58:54.287Z,100627.02
2018-01-27T18:01:22.598Z,100625.30
2018-01-27T18:03:50.859Z,100629.91
2018-01-27T18:06:19.176Z,100629.61
2018-01-27T18:08:47.468Z,100624.27
2018-01-27T18:11:16.192Z,100629.85
2018-01-27T18:13:44.471Z,100623.61
2018-01-27T18:16:13.040Z,100614.08
2018-01-27T18:18:41.334Z,100617.96
2018-01-27T18:21:09.610Z,100613.82
2018-01-27T18:23:37.902Z,100601.28
2018-01-27T18:26:06.201Z,100599.06
2018-01-27T18:28:34.488Z,100599.16
2018-01-27T18:31:02.794Z,100595.92
2018-01-27T18:33:31.074Z,100595.11
2018-01-27T18:35:59.364Z,100598.95
2018-01-27T18:38:27.632Z,100608.67
2018-01-27T18:40:55.940Z,100602.98
2018-01-27T18:43:24.722Z,100610.48
2018-01-27T18:45:53.078Z,100607.66
2018-01-27T18:48:21.350Z,100610.20
2018-01-27T18:50:49.709Z,100606.45
2018-01-27T18:53:17.961Z,100597.84
2018-01-27T18:55:46.274Z,100587.62
2018-01-27T18:58:14.567Z,100580.43
2018-01-27T19:00:42.835Z,100579.44
2018-01-27T19:03:11.127Z,100591.37
2018-01-27T19:05:39.533Z,100576.50
2018-01-27T19:08:07.838Z,100583.97
2018-01-27T19:10:36.086Z,100587.02
2018-01-27T19:13:04.363Z,100592.48
2018-01-27T19:15:32.686Z,100590.37
2018-01-27T19:18:01.050Z,100587.12
2018-01-27T19:20:29.379Z,100587.32
2018-01-27T19:22:57.649Z,100582.45
2018-01-27T19:25:25.939Z,100566.19
2018-01-27T19:27:54.558Z,100586.52
2018-01-27T19:30:22.842Z,100579.23
2018-01-27T19:32:51.155Z,100580.45
2018-01-27T19:35:19.419Z,100577.02
2018-01-27T19:37:47.768Z,100576.08
2018-01-27T19:40:16.062Z,100588.14
2018-01-27T19:42:44.367Z,100584.79
2018-01-27T19:45:12.667Z,100574.16
2018-01-27T19:47:41.046Z,100557.36
2018-01-27T19:50:09.327Z,100563.13
2018-01-27T19:52:37.628Z,100556.47
2018-01-27T19:55:05.895Z,100569.73
2018-01-27T19:57:34.537Z,100576.30
2018-01-27T20:00:02.822Z,100566.98
2018-01-27T20:02:31.226Z,100572.26
2018-01-27T20:04:59.590Z,100583.59
2018-01-27T20:07:27.871Z,100584.50
2018-01-27T20:09:56.185Z,100591.86
2018-01-27T20:12:24.479Z,100605.24
2018-01-27T20:14:52.779Z,100616.16
2018-01-27T20:17:21.052Z,100613.01
2018-01-27T20:19:49.369Z,100597.76
2018-01-27T20:22:17.646Z,100587.72
2018-01-27T20:24:45.955Z,100582.17
2018-01-27T20:27:14.253Z,100574.69
2018-01-27T20:29:42.528Z,100573.16
2018-01-27T20:32:10.836Z,100579.34
2018-01-27T20:34:39.115Z,100574.46
2018-01-27T20:37:07.412Z,100582.37
2018-01-27T20:39:35.785Z,100580.95
2018-01-27T20:42:04.074Z,100574.39
2018-01-27T20:44:32.372Z,100589.86
2018-01-27T20:47:00.796Z,100586.01
2018-01-27T20:49:29.139Z,100592.48
2018-01-27T20:51:57.449Z,100586.41
2018-01-27T20:54:25.683Z,100580.03
2018-01-27T20:56:54.020Z,100585.70
2018-01-27T20:59:22.311Z,100587.22
2018-01-27T21:01:50.633Z,100592.66
2018-01-27T21:04:18.911Z,100580.61
2018-01-27T21:06:47.202Z,100592.03
2018-01-27T21:09:15.470Z,100590.09
2018-01-27T21:11:43.796Z,100585.26
2018-01-27T21:14:12.056Z,100578.47
2018-01-27T21:16:40.363Z,100568.70
2018-01-27T21:19:08.644Z,100571.05
2018-01-27T21:21:36.923Z,100569.63
2018-01-27T21:24:05.219Z,100567.70
2018-01-27T21:26:33.490Z,100568.59
2018-01-27T21:29:01.802Z,100568.11
2018-01-27T21:31:30.267Z,100564.86
2018-01-27T21:33:58.497Z,100561.73
2018-01-27T21:36:26.787Z,100568.70
2018-01-27T21:38:55.068Z,100569.53
2018-01-27T21:41:23.351Z,100565.05
2018-01-27T21:43:51.636Z,100581.71
2018-01-27T21:46:19.947Z,100569.23
2018-01-27T21:48:48.211Z,100581.58
2018-01-27T21:51:16.543Z,100582.87
2018-01-27T21:53:44.931Z,100580.27
2018-01-27T21:56:13.283Z,100582.67
2018-01-27T21:58:41.552Z,100587.75
2018-01-27T22:01:09.863Z,100587.17
2018-01-27T22:03:38.148Z,100592.91
2018-01-27T22:06:06.867Z,100594.83
2018-01-27T22:08:35.285Z,100590.27
2018-01-27T22:11:03.550Z,100583.72
2018-01-27T22:13:31.847Z,100590.39
2018-01-27T22:16:00.938Z,100592.60
2018-01-27T22:18:29.232Z,100581.89
2018-01-27T22:20:57.494Z,100578.66
2018-01-27T22:23:25.981Z,100577.22
2018-01-27T22:25:54.219Z,100567.59
2018-01-27T22:28:22.533Z,100580.36
2018-01-27T22:30:50.807Z,100567.42
2018-01-27T22:33:19.098Z,100565.19
2018-01-27T22:35:47.409Z,100559.52
2018-01-27T22:38:15.669Z,100558.41
2018-01-27T22:40:43.977Z,100569.63
2018-01-27T22:43:12.280Z,100580.56
2018-01-27T22:45:40.627Z,100575.28
2018-01-27T22:48:08.932Z,100551.84
2018-01-27T22:50:37.244Z,100571.56
2018-01-27T22:53:05.563Z,100580.97
2018-01-27T22:55:33.849Z,100578.96
2018-01-27T22:58:02.159Z,100575.30
2018-01-27T23:00:30.424Z,100568.25
2018-01-27T23:02:58.711Z,100573.95
2018-01-27T23:05:26.998Z,100572.22
2018-01-27T23:07:55.299Z,100562.94
2018-01-27T23:10:23.578Z,100552.59
2018-01-27T23:12:51.894Z,100562.23
2018-01-27T23:15:20.762Z,100562.34
2018-01-27T23:17:49.088Z,100565.39
2018-01-27T23:20:18.080Z,100573.40
2018-01-27T23:22:46.360Z,100557.94
2018-01-27T23:25:14.695Z,100567.92
2018-01-27T23:27:42.976Z,100576.94
2018-01-27T23:30:11.269Z,100572.79
2018-01-27T23:32:39.544Z,100572.58
2018-01-27T23:35:07.827Z,100569.55
2018-01-27T23:37:36.111Z,100567.42
2018-01-27T23:40:06.031Z,100569.43
2018-01-27T23:42:34.308Z,100561.86
2018-01-27T23:45:02.618Z,100560.97
2018-01-27T23:47:30.911Z,100571.69
2018-01-27T23:49:59.254Z,100583.94
2018-01-27T23:52:27.495Z,100580.70
2018-01-27T23:54:55.797Z,100578.27
2018-01-27T23:57:24.141Z,100580.16
2018-01-27T23:59:52.479Z,100578.00
